createdAt,value
2017-01-29T00:00:07.254Z,0
2017-01-29T00:01:18.659Z,0
2017-01-29T00:02:30.266Z,0
2017-01-29T00:03:41.676Z,0
2017-01-29T00:04:53.084Z,0
2017-01-29T00:06:04.554Z,0
2017-01-29T00:07:16.160Z,0
2017-01-29T00:08:27.572Z,0
2017-01-29T00:09:38.992Z,0
2017-01-29T00:10:50.430Z,0
2017-01-29T00:12:02.093Z,0
2017-01-29T00:13:13.500Z,0
2017-01-29T00:14:24.913Z,0
2017-01-29T00:15:36.329Z,0
2017-01-29T00:16:47.739Z,0
2017-01-29T00:17:59.206Z,0
2017-01-29T00:19:10.609Z,0
2017-01-29T00:20:22.225Z,0
2017-01-29T00:21:33.637Z,0
2017-01-29T00:22:45.044Z,0
2017-01-29T00:23:56.509Z,0
2017-01-29T00:25:07.914Z,0
2017-01-29T00:26:19.341Z,0
2017-01-29T00:27:30.750Z,0
2017-01-29T00:28:42.161Z,0
2017-01-29T00:29:53.618Z,0
2017-01-29T00:31:05.223Z,0
2017-01-29T00:32:16.633Z,0
2017-01-29T00:33:28.050Z,0
2017-01-29T00:34:39.460Z,0
2017-01-29T00:35:51.119Z,0
2017-01-29T00:37:02.535Z,0
2017-01-29T00:38:13.937Z,0
2017-01-29T00:39:25.348Z,0
2017-01-29T00:40:36.754Z,0
2017-01-29T00:41:48.409Z,0
2017-01-29T00:42:59.819Z,0
2017-01-29T00:44:11.236Z,0
2017-01-29T00:45:22.846Z,0
2017-01-29T00:46:34.256Z,0
2017-01-29T00:47:45.715Z,0
2017-01-29T00:48:57.118Z,0
2017-01-29T00:50:08.524Z,0
2017-01-29T00:51:19.929Z,0
2017-01-29T00:52:31.336Z,0
2017-01-29T00:53:42.992Z,0
2017-01-29T00:54:54.393Z,0
2017-01-29T00:56:06.004Z,0
2017-01-29T00:57:17.416Z,0
2017-01-29T00:58:28.828Z,0
2017-01-29T00:59:40.287Z,0
2017-01-29T01:00:51.696Z,0
2017-01-29T01:02:03.104Z,0
2017-01-29T01:03:14.509Z,0
2017-01-29T01:04:26.123Z,0
2017-01-29T01:05:37.585Z,0
2017-01-29T01:06:48.994Z,0
2017-01-29T01:08:00.403Z,0
2017-01-29T01:09:11.814Z,0
2017-01-29T01:10:23.230Z,0
2017-01-29T01:11:34.700Z,0
2017-01-29T01:12:46.111Z,0
2017-01-29T01:13:57.520Z,0
2017-01-29T01:15:08.929Z,0
2017-01-29T01:16:20.541Z,0
2017-01-29T01:17:31.996Z,0
2017-01-29T01:18:43.403Z,0
2017-01-29T01:19:54.813Z,0
2017-01-29T01:21:06.225Z,0
2017-01-29T01:22:17.834Z,0
2017-01-29T01:23:29.303Z,0
2017-01-29T01:24:40.713Z,0
2017-01-29T01:25:52.320Z,0
2017-01-29T01:27:03.734Z,0
2017-01-29T01:28:15.138Z,0
2017-01-29T01:29:26.597Z,0
2017-01-29T01:30:38.011Z,0
2017-01-29T01:31:49.436Z,0
2017-01-29T01:33:00.858Z,0
2017-01-29T01:34:12.278Z,0
2017-01-29T01:35:23.738Z,0
2017-01-29T01:36:35.138Z,0
2017-01-29T01:37:46.548Z,0
2017-01-29T01:38:58.155Z,0
2017-01-29T01:40:09.565Z,0
2017-01-29T01:41:21.421Z,0
2017-01-29T01:42:32.831Z,0
2017-01-29T01:43:44.446Z,0
2017-01-29T01:44:55.850Z,0
2017-01-29T01:46:07.263Z,0
2017-01-29T01:47:19.124Z,0
2017-01-29T01:48:30.532Z,0
2017-01-29T01:49:42.138Z,0
2017-01-29T01:50:53.542Z,0
2017-01-29T01:52:05.144Z,0
2017-01-29T01:53:16.794Z,0
2017-01-29T01:54:28.205Z,0
2017-01-29T01:55:39.608Z,0
2017-01-29T01:56:51.017Z,0
2017-01-29T01:58:02.627Z,0
2017-01-29T01:59:14.086Z,0
2017-01-29T02:00:25.489Z,0
2017-01-29T02:01:36.900Z,0
2017-01-29T02:02:48.306Z,0
2017-01-29T02:03:59.922Z,0
2017-01-29T02:05:11.385Z,0
2017-01-29T02:06:22.787Z,0
2017-01-29T02:07:34.198Z,0
2017-01-29T02:08:45.806Z,0
2017-01-29T02:09:57.413Z,0
2017-01-29T02:11:08.880Z,0
2017-01-29T02:12:20.691Z,0
2017-01-29T02:13:32.097Z,0
2017-01-29T02:14:43.517Z,0
2017-01-29T02:15:54.967Z,0
2017-01-29T02:17:06.438Z,0
2017-01-29T02:18:17.847Z,0
2017-01-29T02:19:29.254Z,0
2017-01-29T02:20:40.654Z,0
2017-01-29T02:21:52.070Z,0
2017-01-29T02:23:03.536Z,0
2017-01-29T02:24:14.966Z,0
2017-01-29T02:25:26.369Z,0
2017-01-29T02:26:37.784Z,0
2017-01-29T02:27:49.214Z,0
2017-01-29T02:29:00.671Z,0
2017-01-29T02:30:12.085Z,0
2017-01-29T02:31:23.498Z,0
2017-01-29T02:32:34.899Z,0
2017-01-29T02:33:46.308Z,0
2017-01-29T02:34:57.758Z,0
2017-01-29T02:36:09.166Z,0
2017-01-29T02:37:20.584Z,0
2017-01-29T02:38:31.993Z,0
2017-01-29T02:39:43.600Z,0
2017-01-29T02:40:55.095Z,0
2017-01-29T02:42:06.709Z,0
2017-01-29T02:43:18.112Z,0
2017-01-29T02:44:29.517Z,0
2017-01-29T02:45:40.929Z,0
2017-01-29T02:46:52.385Z,0
2017-01-29T02:48:03.798Z,0
2017-01-29T02:49:15.412Z,0
2017-01-29T02:50:26.825Z,0
2017-01-29T02:51:38.240Z,0
2017-01-29T02:52:49.709Z,0
2017-01-29T02:54:01.122Z,0
2017-01-29T02:55:12.525Z,0
2017-01-29T02:56:24.130Z,0
2017-01-29T02:57:35.579Z,0
2017-01-29T02:58:47.031Z,0
2017-01-29T02:59:58.443Z,0
2017-01-29T03:01:09.856Z,0
2017-01-29T03:02:21.278Z,0
2017-01-29T03:03:32.694Z,0
2017-01-29T03:04:44.152Z,0
2017-01-29T03:05:55.559Z,0
2017-01-29T03:07:06.965Z,0
2017-01-29T03:08:18.383Z,0
2017-01-29T03:09:29.799Z,0
2017-01-29T03:10:41.468Z,0
2017-01-29T03:11:52.872Z,0
2017-01-29T03:13:04.282Z,0
2017-01-29T03:14:15.894Z,0
2017-01-29T03:15:27.308Z,0
2017-01-29T03:16:38.762Z,0
2017-01-29T03:17:50.180Z,0
2017-01-29T03:19:01.586Z,0
2017-01-29T03:20:13.200Z,0
2017-01-29T03:21:24.606Z,0
2017-01-29T03:22:36.060Z,0
2017-01-29T03:23:47.668Z,0
2017-01-29T03:24:59.076Z,0
2017-01-29T03:26:10.691Z,0
2017-01-29T03:27:22.096Z,0
2017-01-29T03:28:33.554Z,0
2017-01-29T03:29:44.971Z,0
2017-01-29T03:30:56.378Z,0
2017-01-29T03:32:07.789Z,0
2017-01-29T03:33:19.197Z,0
2017-01-29T03:34:30.660Z,0
2017-01-29T03:35:42.065Z,0
2017-01-29T03:36:53.472Z,0
2017-01-29T03:38:04.879Z,0
2017-01-29T03:39:16.282Z,0
2017-01-29T03:42:10.669Z,0
2017-01-29T03:43:22.293Z,0
2017-01-29T03:44:33.901Z,0
2017-01-29T03:45:45.362Z,0
2017-01-29T03:46:56.766Z,0
2017-01-29T03:48:08.183Z,0
2017-01-29T03:49:19.592Z,0
2017-01-29T03:50:30.997Z,0
2017-01-29T03:51:42.451Z,0
2017-01-29T03:52:54.067Z,0
2017-01-29T03:54:05.507Z,0
2017-01-29T03:55:16.908Z,0
2017-01-29T03:56:28.518Z,0
2017-01-29T03:57:40.181Z,0
2017-01-29T03:58:51.593Z,0
2017-01-29T04:00:03.007Z,0
2017-01-29T04:01:14.415Z,0
2017-01-29T04:02:25.819Z,0
2017-01-29T04:03:37.268Z,0
2017-01-29T04:04:48.880Z,0
2017-01-29T04:06:00.285Z,0
2017-01-29T04:07:11.708Z,0
2017-01-29T04:08:23.116Z,0
2017-01-29T04:09:34.594Z,0
2017-01-29T04:10:46.006Z,0
2017-01-29T04:11:57.621Z,0
2017-01-29T04:13:09.230Z,0
2017-01-29T04:14:20.640Z,0
2017-01-29T04:15:32.308Z,0
2017-01-29T04:16:43.726Z,0
2017-01-29T04:17:55.133Z,0
2017-01-29T04:19:06.753Z,0
2017-01-29T04:20:18.159Z,0
2017-01-29T04:21:29.616Z,0
2017-01-29T04:22:41.224Z,0
2017-01-29T04:23:52.637Z,0
2017-01-29T04:25:04.040Z,0
2017-01-29T04:26:15.457Z,0
2017-01-29T04:27:26.908Z,0
2017-01-29T04:28:38.309Z,0
2017-01-29T04:29:49.924Z,0
2017-01-29T04:31:01.540Z,0
2017-01-29T04:32:12.950Z,0
2017-01-29T04:33:24.604Z,0
2017-01-29T04:34:36.210Z,0
2017-01-29T04:35:47.623Z,0
2017-01-29T04:36:59.025Z,0
2017-01-29T04:38:10.632Z,0
2017-01-29T04:39:22.094Z,0
2017-01-29T04:40:33.504Z,0
2017-01-29T04:41:44.915Z,0
2017-01-29T04:42:56.523Z,0
2017-01-29T04:44:07.931Z,0
2017-01-29T04:45:19.417Z,0
2017-01-29T04:46:30.823Z,0
2017-01-29T04:47:42.238Z,0
2017-01-29T04:48:53.643Z,0
2017-01-29T04:50:05.048Z,0
2017-01-29T04:51:16.499Z,0
2017-01-29T04:52:28.108Z,0
2017-01-29T04:53:39.508Z,0
2017-01-29T04:54:50.917Z,0
2017-01-29T04:56:02.522Z,0
2017-01-29T04:57:13.978Z,0
2017-01-29T04:58:25.386Z,0
2017-01-29T04:59:37.001Z,0
2017-01-29T05:00:48.606Z,0
2017-01-29T05:02:00.211Z,0
2017-01-29T05:03:11.671Z,0
2017-01-29T05:04:23.088Z,0
2017-01-29T05:05:34.521Z,0
2017-01-29T05:06:45.934Z,0
2017-01-29T05:07:57.355Z,0
2017-01-29T05:09:08.808Z,0
2017-01-29T05:10:20.414Z,0
2017-01-29T05:11:31.821Z,0
2017-01-29T05:12:43.433Z,0
2017-01-29T05:13:54.847Z,0
2017-01-29T05:15:06.306Z,0
2017-01-29T05:16:17.715Z,0
2017-01-29T05:17:29.128Z,0
2017-01-29T05:18:40.542Z,0
2017-01-29T05:19:52.153Z,0
2017-01-29T05:21:03.683Z,0
2017-01-29T05:22:15.102Z,0
2017-01-29T05:23:26.513Z,0
2017-01-29T05:24:37.922Z,0
2017-01-29T05:25:49.362Z,0
2017-01-29T05:27:00.812Z,0
2017-01-29T05:28:12.217Z,0
2017-01-29T05:29:23.626Z,0
2017-01-29T05:30:35.037Z,0
2017-01-29T05:31:46.448Z,0
2017-01-29T05:32:58.103Z,0
2017-01-29T05:34:09.506Z,0
2017-01-29T05:35:20.896Z,0
2017-01-29T05:36:32.505Z,0
2017-01-29T05:37:44.110Z,0
2017-01-29T05:38:55.566Z,0
2017-01-29T05:40:06.975Z,0
2017-01-29T05:41:18.378Z,0
2017-01-29T05:42:30.186Z,0
2017-01-29T05:43:41.798Z,0
2017-01-29T05:44:53.482Z,0
2017-01-29T05:46:05.090Z,0
2017-01-29T05:47:16.696Z,0
2017-01-29T05:48:28.097Z,0
2017-01-29T05:49:39.719Z,0
2017-01-29T05:50:51.188Z,0
2017-01-29T05:52:02.601Z,0
2017-01-29T05:53:14.201Z,0
2017-01-29T05:54:25.614Z,0
2017-01-29T05:55:37.046Z,0
2017-01-29T05:56:48.504Z,0
2017-01-29T05:57:59.907Z,0
2017-01-29T05:59:11.314Z,0
2017-01-29T06:00:22.722Z,0
2017-01-29T06:01:34.335Z,0
2017-01-29T06:02:45.790Z,0
2017-01-29T06:03:57.200Z,0
2017-01-29T06:05:08.613Z,0
2017-01-29T06:06:20.020Z,0
2017-01-29T06:07:31.422Z,0
2017-01-29T06:08:42.873Z,0
2017-01-29T06:09:54.484Z,0
2017-01-29T06:11:05.931Z,0
2017-01-29T06:12:17.333Z,0
2017-01-29T06:13:28.752Z,0
2017-01-29T06:14:40.206Z,0
2017-01-29T06:15:51.625Z,0
2017-01-29T06:17:03.041Z,0
2017-01-29T06:18:14.650Z,0
2017-01-29T06:19:26.058Z,0
2017-01-29T06:20:37.540Z,0
2017-01-29T06:21:48.982Z,0
2017-01-29T06:23:00.595Z,0
2017-01-29T06:24:11.994Z,0
2017-01-29T06:25:23.400Z,0
2017-01-29T06:26:34.858Z,0
2017-01-29T06:27:46.267Z,0
2017-01-29T06:28:57.674Z,0
2017-01-29T06:30:09.084Z,0
2017-01-29T06:31:20.482Z,0
2017-01-29T06:32:31.936Z,0
2017-01-29T06:33:43.343Z,0
2017-01-29T06:34:54.746Z,0
2017-01-29T06:36:06.159Z,0
2017-01-29T06:37:17.575Z,0
2017-01-29T06:38:29.036Z,0
2017-01-29T06:39:40.642Z,0
2017-01-29T06:40:52.048Z,0
2017-01-29T06:42:03.654Z,0
2017-01-29T06:43:15.066Z,0
2017-01-29T06:44:26.519Z,0
2017-01-29T06:45:37.917Z,0
2017-01-29T06:46:49.524Z,0
2017-01-29T06:48:00.943Z,0
2017-01-29T06:49:12.355Z,0
2017-01-29T06:50:23.819Z,0
2017-01-29T06:51:35.222Z,0
2017-01-29T06:52:46.622Z,0
2017-01-29T06:53:58.024Z,0
2017-01-29T06:55:09.435Z,0
2017-01-29T06:56:20.882Z,0
2017-01-29T06:57:32.285Z,0
2017-01-29T06:58:44.093Z,0
2017-01-29T06:59:55.494Z,0
2017-01-29T07:01:07.307Z,0
2017-01-29T07:02:18.969Z,0
2017-01-29T07:03:30.380Z,0
2017-01-29T07:04:42.006Z,0
2017-01-29T07:05:53.416Z,0
2017-01-29T07:07:04.829Z,0
2017-01-29T07:08:16.288Z,0
2017-01-29T07:09:27.698Z,0
2017-01-29T07:10:39.107Z,0
2017-01-29T07:11:50.916Z,0
2017-01-29T07:13:02.317Z,5
2017-01-29T07:14:13.774Z,5
2017-01-29T07:15:25.380Z,5
2017-01-29T07:16:36.783Z,5
2017-01-29T07:17:48.203Z,5
2017-01-29T07:18:59.609Z,5
2017-01-29T07:20:11.065Z,10
2017-01-29T07:21:22.469Z,15
2017-01-29T07:22:33.876Z,15
2017-01-29T07:23:45.283Z,20
2017-01-29T07:24:56.688Z,20
2017-01-29T07:26:08.135Z,30
2017-01-29T07:27:19.738Z,30
2017-01-29T07:28:31.349Z,35
2017-01-29T07:29:42.758Z,35
2017-01-29T07:30:54.159Z,40
2017-01-29T07:32:05.614Z,45
2017-01-29T07:33:17.019Z,45
2017-01-29T07:34:28.419Z,45
2017-01-29T07:35:39.887Z,55
2017-01-29T07:36:51.485Z,60
2017-01-29T07:38:02.944Z,60
2017-01-29T07:39:14.357Z,60
2017-01-29T07:40:25.760Z,70
2017-01-29T07:41:37.173Z,60
2017-01-29T07:42:48.779Z,55
2017-01-29T07:44:00.235Z,60
2017-01-29T07:45:11.644Z,65
2017-01-29T07:46:23.065Z,65
2017-01-29T07:47:34.473Z,80
2017-01-29T07:48:45.877Z,70
2017-01-29T07:49:57.336Z,65
2017-01-29T07:51:08.755Z,55
2017-01-29T07:52:20.158Z,35
2017-01-29T07:53:31.566Z,35
2017-01-29T07:54:42.968Z,40
2017-01-29T07:55:54.426Z,35
2017-01-29T07:57:05.828Z,35
2017-01-29T07:58:17.236Z,35
2017-01-29T07:59:28.640Z,40
2017-01-29T08:00:40.048Z,40
2017-01-29T08:01:51.501Z,40
2017-01-29T08:03:02.906Z,40
2017-01-29T08:04:14.507Z,40
2017-01-29T08:05:25.921Z,45
2017-01-29T08:06:37.329Z,45
2017-01-29T08:07:48.997Z,45
2017-01-29T08:09:00.603Z,45
2017-01-29T08:10:12.235Z,45
2017-01-29T08:11:23.635Z,45
2017-01-29T08:12:35.044Z,45
2017-01-29T08:13:46.503Z,40
2017-01-29T08:14:57.916Z,45
2017-01-29T08:16:09.530Z,45
2017-01-29T08:17:21.167Z,45
2017-01-29T08:18:32.572Z,45
2017-01-29T08:19:44.031Z,50
2017-01-29T08:20:55.642Z,55
2017-01-29T08:22:07.047Z,55
2017-01-29T08:23:18.449Z,55
2017-01-29T08:24:30.055Z,55
2017-01-29T08:25:41.518Z,50
2017-01-29T08:26:52.924Z,50
2017-01-29T08:28:04.335Z,50
2017-01-29T08:29:15.746Z,50
2017-01-29T08:30:27.158Z,45
2017-01-29T08:31:38.620Z,40
2017-01-29T08:32:50.020Z,35
2017-01-29T08:34:01.625Z,35
2017-01-29T08:35:13.038Z,35
2017-01-29T08:36:24.443Z,30
2017-01-29T08:37:36.096Z,30
2017-01-29T08:38:47.700Z,25
2017-01-29T08:39:59.097Z,25
2017-01-29T08:41:10.502Z,25
2017-01-29T08:42:21.911Z,20
2017-01-29T08:43:33.370Z,25
2017-01-29T08:44:44.785Z,30
2017-01-29T08:45:56.212Z,30
2017-01-29T08:47:07.618Z,30
2017-01-29T08:48:19.037Z,25
2017-01-29T08:49:30.491Z,25
2017-01-29T08:50:41.897Z,20
2017-01-29T08:51:53.295Z,25
2017-01-29T08:53:04.704Z,30
2017-01-29T08:54:16.108Z,30
2017-01-29T08:55:27.564Z,35
2017-01-29T08:56:38.964Z,40
2017-01-29T08:57:50.368Z,35
2017-01-29T08:59:01.987Z,35
2017-01-29T09:00:13.393Z,40
2017-01-29T09:01:24.838Z,50
2017-01-29T09:02:36.441Z,55
2017-01-29T09:03:47.851Z,55
2017-01-29T09:04:59.265Z,50
2017-01-29T09:06:10.675Z,45
2017-01-29T09:07:22.334Z,45
2017-01-29T09:08:33.738Z,40
2017-01-29T09:09:45.149Z,40
2017-01-29T09:10:56.551Z,45
2017-01-29T09:12:08.153Z,45
2017-01-29T09:13:19.713Z,45
2017-01-29T09:14:31.115Z,50
2017-01-29T09:15:42.518Z,50
2017-01-29T09:16:53.932Z,55
2017-01-29T09:18:05.347Z,55
2017-01-29T09:19:16.803Z,55
2017-01-29T09:20:28.206Z,55
2017-01-29T09:21:39.614Z,55
2017-01-29T09:22:51.018Z,60
2017-01-29T09:24:02.431Z,60
2017-01-29T09:25:14.092Z,65
2017-01-29T09:26:25.706Z,65
2017-01-29T09:27:37.308Z,60
2017-01-29T09:28:48.926Z,55
2017-01-29T09:30:00.339Z,50
2017-01-29T09:31:11.788Z,50
2017-01-29T09:32:23.184Z,55
2017-01-29T09:33:34.622Z,55
2017-01-29T09:34:46.031Z,55
2017-01-29T09:35:57.437Z,70
2017-01-29T09:37:08.892Z,90
2017-01-29T09:38:20.301Z,105
2017-01-29T09:39:31.708Z,110
2017-01-29T09:40:43.105Z,100
2017-01-29T09:41:54.515Z,80
2017-01-29T09:43:05.986Z,75
2017-01-29T09:44:17.403Z,80
2017-01-29T09:45:28.812Z,75
2017-01-29T09:46:40.224Z,70
2017-01-29T09:47:51.834Z,75
2017-01-29T09:49:03.295Z,80
2017-01-29T09:50:14.708Z,85
2017-01-29T09:51:26.117Z,85
2017-01-29T09:52:37.520Z,85
2017-01-29T09:53:48.926Z,95
2017-01-29T09:55:00.391Z,90
2017-01-29T09:56:11.994Z,105
2017-01-29T09:57:23.397Z,125
2017-01-29T09:58:35.009Z,145
2017-01-29T09:59:46.419Z,150
2017-01-29T10:00:57.882Z,120
2017-01-29T10:02:09.290Z,95
2017-01-29T10:03:20.901Z,95
2017-01-29T10:04:32.707Z,90
2017-01-29T10:05:44.118Z,80
2017-01-29T10:06:55.616Z,80
2017-01-29T10:08:07.023Z,70
2017-01-29T10:09:18.429Z,60
2017-01-29T10:10:29.826Z,60
2017-01-29T10:11:41.228Z,65
2017-01-29T10:12:52.687Z,55
2017-01-29T10:14:04.300Z,50
2017-01-29T10:15:15.907Z,50
2017-01-29T10:16:27.309Z,55
2017-01-29T10:17:38.718Z,60
2017-01-29T10:18:50.174Z,70
2017-01-29T10:20:01.784Z,80
2017-01-29T10:21:13.193Z,95
2017-01-29T10:22:24.594Z,95
2017-01-29T10:23:36.005Z,80
2017-01-29T10:24:47.464Z,80
2017-01-29T10:25:58.874Z,90
2017-01-29T10:27:10.312Z,95
2017-01-29T10:28:21.720Z,85
2017-01-29T10:29:33.140Z,95
2017-01-29T10:30:44.606Z,105
2017-01-29T10:31:56.018Z,110
2017-01-29T10:33:07.427Z,110
2017-01-29T10:34:18.835Z,115
2017-01-29T10:35:30.237Z,115
2017-01-29T10:36:41.693Z,125
2017-01-29T10:37:53.104Z,150
2017-01-29T10:39:04.528Z,135
2017-01-29T10:40:15.941Z,120
2017-01-29T10:41:27.346Z,125
2017-01-29T10:42:38.800Z,190
2017-01-29T10:43:50.210Z,185
2017-01-29T10:45:01.622Z,195
2017-01-29T10:46:13.029Z,205
2017-01-29T10:47:24.449Z,190
2017-01-29T10:48:35.907Z,225
2017-01-29T10:49:47.322Z,200
2017-01-29T10:50:58.930Z,170
2017-01-29T10:52:10.536Z,155
2017-01-29T10:53:21.942Z,170
2017-01-29T10:54:33.405Z,145
2017-01-29T10:55:44.807Z,140
2017-01-29T10:56:56.214Z,125
2017-01-29T10:58:07.823Z,125
2017-01-29T10:59:19.235Z,135
2017-01-29T11:00:30.693Z,115
2017-01-29T11:01:42.095Z,110
2017-01-29T11:02:53.503Z,120
2017-01-29T11:04:04.915Z,125
2017-01-29T11:05:16.518Z,125
2017-01-29T11:06:27.974Z,140
2017-01-29T11:07:39.374Z,145
2017-01-29T11:08:51.183Z,170
2017-01-29T11:10:02.789Z,175
2017-01-29T11:11:14.190Z,145
2017-01-29T11:12:25.668Z,115
2017-01-29T11:13:37.074Z,110
2017-01-29T11:14:48.487Z,120
2017-01-29T11:15:59.893Z,105
2017-01-29T11:17:11.303Z,90
2017-01-29T11:18:22.757Z,80
2017-01-29T11:19:34.162Z,70
2017-01-29T11:20:45.579Z,75
2017-01-29T11:21:57.193Z,85
2017-01-29T11:23:08.804Z,90
2017-01-29T11:24:20.260Z,90
2017-01-29T11:25:31.673Z,95
2017-01-29T11:26:43.079Z,80
2017-01-29T11:27:54.486Z,75
2017-01-29T11:29:06.092Z,80
2017-01-29T11:30:17.548Z,85
2017-01-29T11:31:29.153Z,95
2017-01-29T11:32:40.761Z,110
2017-01-29T11:33:52.167Z,150
2017-01-29T11:35:03.776Z,180
2017-01-29T11:36:15.248Z,165
2017-01-29T11:37:26.863Z,140
2017-01-29T11:38:38.268Z,135
2017-01-29T11:39:49.682Z,145
2017-01-29T11:41:01.295Z,150
2017-01-29T11:42:12.769Z,140
2017-01-29T11:43:24.377Z,130
2017-01-29T11:44:35.785Z,155
2017-01-29T11:45:47.192Z,170
2017-01-29T11:46:58.603Z,190
2017-01-29T11:48:10.057Z,220
2017-01-29T11:49:21.477Z,240
2017-01-29T11:50:32.888Z,290
2017-01-29T11:51:44.299Z,330
2017-01-29T11:52:56.114Z,335
2017-01-29T11:54:07.567Z,305
2017-01-29T11:55:18.970Z,265
2017-01-29T11:56:30.378Z,225
2017-01-29T11:57:41.787Z,205
2017-01-29T11:58:53.197Z,220
2017-01-29T12:00:04.666Z,205
2017-01-29T12:01:16.291Z,170
2017-01-29T12:02:27.705Z,170
2017-01-29T12:03:39.110Z,175
2017-01-29T12:04:50.516Z,185
2017-01-29T12:06:01.974Z,205
2017-01-29T12:07:13.390Z,245
2017-01-29T12:08:24.805Z,295
2017-01-29T12:09:36.225Z,300
2017-01-29T12:10:47.832Z,255
2017-01-29T12:11:59.296Z,215
2017-01-29T12:13:10.701Z,180
2017-01-29T12:14:22.124Z,170
2017-01-29T12:15:33.531Z,160
2017-01-29T12:16:44.947Z,145
2017-01-29T12:17:56.397Z,155
2017-01-29T12:19:08.012Z,180
2017-01-29T12:20:19.429Z,220
2017-01-29T12:21:30.846Z,260
2017-01-29T12:22:42.255Z,275
2017-01-29T12:23:53.717Z,385
2017-01-29T12:25:05.158Z,255
2017-01-29T12:26:16.571Z,220
2017-01-29T12:27:28.178Z,240
2017-01-29T12:28:39.592Z,275
2017-01-29T12:29:51.058Z,280
2017-01-29T12:31:02.473Z,255
2017-01-29T12:32:13.898Z,220
2017-01-29T12:33:25.310Z,195
2017-01-29T12:34:36.712Z,175
2017-01-29T12:35:48.168Z,150
2017-01-29T12:36:59.575Z,145
2017-01-29T12:38:10.990Z,155
2017-01-29T12:39:22.431Z,145
2017-01-29T12:40:33.842Z,140
2017-01-29T12:41:45.313Z,130
2017-01-29T12:42:56.727Z,145
2017-01-29T12:44:08.138Z,150
2017-01-29T12:45:19.554Z,155
2017-01-29T12:46:30.967Z,150
2017-01-29T12:47:42.434Z,145
2017-01-29T12:48:53.847Z,130
2017-01-29T12:50:05.256Z,120
2017-01-29T12:51:16.673Z,120
2017-01-29T12:52:28.082Z,110
2017-01-29T12:53:39.555Z,100
2017-01-29T12:54:50.960Z,110
2017-01-29T12:56:02.577Z,120
2017-01-29T12:57:13.988Z,125
2017-01-29T12:58:25.404Z,125
2017-01-29T12:59:36.861Z,120
2017-01-29T13:00:48.286Z,115
2017-01-29T13:01:59.703Z,110
2017-01-29T13:03:11.116Z,105
2017-01-29T13:04:22.520Z,105
2017-01-29T13:05:33.985Z,105
2017-01-29T13:06:45.407Z,115
2017-01-29T13:07:56.827Z,115
2017-01-29T13:09:08.234Z,110
2017-01-29T13:10:20.049Z,115
2017-01-29T13:11:31.545Z,110
2017-01-29T13:12:42.955Z,100
2017-01-29T13:13:54.372Z,105
2017-01-29T13:15:05.782Z,105
2017-01-29T13:16:17.210Z,105
2017-01-29T13:17:28.673Z,130
2017-01-29T13:18:40.079Z,150
2017-01-29T13:19:51.490Z,165
2017-01-29T13:21:02.900Z,190
2017-01-29T13:22:14.304Z,190
2017-01-29T13:23:25.759Z,195
2017-01-29T13:24:37.368Z,200
2017-01-29T13:25:48.780Z,205
2017-01-29T13:27:00.188Z,180
2017-01-29T13:28:11.799Z,160
2017-01-29T13:29:23.260Z,150
2017-01-29T13:30:34.684Z,145
2017-01-29T13:31:46.286Z,150
2017-01-29T13:32:57.696Z,145
2017-01-29T13:34:09.305Z,145
2017-01-29T13:35:20.774Z,145
2017-01-29T13:36:32.188Z,145
2017-01-29T13:37:43.600Z,145
2017-01-29T13:38:55.005Z,140
2017-01-29T13:40:06.419Z,120
2017-01-29T13:41:17.884Z,95
2017-01-29T13:42:29.292Z,95
2017-01-29T13:43:40.705Z,100
2017-01-29T13:44:52.128Z,95
2017-01-29T13:46:03.535Z,90
2017-01-29T13:47:15.209Z,80
2017-01-29T13:48:26.618Z,65
2017-01-29T13:49:38.239Z,60
2017-01-29T13:50:49.666Z,70
2017-01-29T13:52:01.086Z,80
2017-01-29T13:53:12.550Z,95
2017-01-29T13:54:23.968Z,120
2017-01-29T13:55:35.812Z,120
2017-01-29T13:56:47.226Z,110
2017-01-29T13:57:58.647Z,110
2017-01-29T13:59:10.307Z,125
2017-01-29T14:00:21.717Z,140
2017-01-29T14:01:33.129Z,145
2017-01-29T14:02:44.539Z,170
2017-01-29T14:03:55.959Z,195
2017-01-29T14:05:07.420Z,240
2017-01-29T14:06:18.818Z,285
2017-01-29T14:07:30.226Z,280
2017-01-29T14:08:41.843Z,265
2017-01-29T14:09:53.242Z,265
2017-01-29T14:11:04.708Z,300
2017-01-29T14:12:16.106Z,310
2017-01-29T14:13:27.518Z,275
2017-01-29T14:14:38.938Z,255
2017-01-29T14:15:50.353Z,285
2017-01-29T14:17:01.812Z,280
2017-01-29T14:18:13.230Z,255
2017-01-29T14:19:24.641Z,220
2017-01-29T14:20:36.050Z,210
2017-01-29T14:21:47.454Z,205
2017-01-29T14:22:58.926Z,185
2017-01-29T14:24:10.342Z,185
2017-01-29T14:25:21.748Z,190
2017-01-29T14:26:33.162Z,190
2017-01-29T14:27:44.570Z,190
2017-01-29T14:28:56.038Z,195
2017-01-29T14:30:07.655Z,195
2017-01-29T14:31:19.069Z,190
2017-01-29T14:32:30.477Z,180
2017-01-29T14:33:42.088Z,170
2017-01-29T14:34:53.555Z,170
2017-01-29T14:36:04.966Z,170
2017-01-29T14:37:16.383Z,165
2017-01-29T14:38:27.804Z,165
2017-01-29T14:39:39.218Z,155
2017-01-29T14:40:50.878Z,140
2017-01-29T14:42:02.295Z,135
2017-01-29T14:43:13.712Z,130
2017-01-29T14:44:25.328Z,130
2017-01-29T14:45:36.732Z,125
2017-01-29T14:46:48.189Z,120
2017-01-29T14:47:59.589Z,120
2017-01-29T14:49:10.994Z,105
2017-01-29T14:50:22.403Z,105
2017-01-29T14:51:33.812Z,100
2017-01-29T14:52:45.273Z,100
2017-01-29T14:53:56.688Z,100
2017-01-29T14:55:08.102Z,100
2017-01-29T14:56:19.536Z,100
2017-01-29T14:57:30.961Z,115
2017-01-29T14:58:42.423Z,120
2017-01-29T14:59:53.838Z,120
2017-01-29T15:01:05.253Z,115
2017-01-29T15:02:16.654Z,115
2017-01-29T15:03:28.058Z,110
2017-01-29T15:04:39.510Z,110
2017-01-29T15:05:50.918Z,105
2017-01-29T15:07:02.331Z,100
2017-01-29T15:08:13.741Z,100
2017-01-29T15:09:25.351Z,100
2017-01-29T15:10:36.804Z,100
2017-01-29T15:11:48.202Z,105
2017-01-29T15:12:59.612Z,105
2017-01-29T15:14:11.232Z,105
2017-01-29T15:15:22.641Z,110
2017-01-29T15:16:34.300Z,110
2017-01-29T15:17:45.919Z,105
2017-01-29T15:18:57.329Z,110
2017-01-29T15:20:08.743Z,100
2017-01-29T15:21:20.162Z,105
2017-01-29T15:22:31.828Z,95
2017-01-29T15:23:43.250Z,95
2017-01-29T15:24:54.856Z,95
2017-01-29T15:26:06.269Z,90
2017-01-29T15:27:17.683Z,80
2017-01-29T15:28:29.138Z,80
2017-01-29T15:29:40.549Z,75
2017-01-29T15:30:51.952Z,70
2017-01-29T15:32:03.365Z,65
2017-01-29T15:33:14.994Z,65
2017-01-29T15:34:26.457Z,60
2017-01-29T15:35:37.855Z,60
2017-01-29T15:36:49.276Z,55
2017-01-29T15:38:00.892Z,55
2017-01-29T15:39:12.308Z,55
2017-01-29T15:40:23.970Z,55
2017-01-29T15:41:35.416Z,50
2017-01-29T15:42:46.830Z,50
2017-01-29T15:43:58.239Z,45
2017-01-29T15:45:09.659Z,45
2017-01-29T15:46:21.118Z,45
2017-01-29T15:47:32.531Z,40
2017-01-29T15:48:43.939Z,40
2017-01-29T15:49:55.350Z,40
2017-01-29T15:51:06.760Z,35
2017-01-29T15:52:18.223Z,40
2017-01-29T15:53:29.637Z,35
2017-01-29T15:54:41.053Z,35
2017-01-29T15:55:52.484Z,30
2017-01-29T15:57:03.893Z,30
2017-01-29T15:58:15.350Z,30
2017-01-29T15:59:26.757Z,25
2017-01-29T16:00:38.159Z,25
2017-01-29T16:01:49.779Z,20
2017-01-29T16:03:01.194Z,20
2017-01-29T16:04:12.692Z,20
2017-01-29T16:05:24.307Z,15
2017-01-29T16:06:35.916Z,15
2017-01-29T16:07:47.326Z,15
2017-01-29T16:08:58.752Z,10
2017-01-29T16:10:10.226Z,10
2017-01-29T16:11:21.828Z,10
2017-01-29T16:12:33.235Z,5
2017-01-29T16:13:44.649Z,5
2017-01-29T16:14:56.089Z,5
2017-01-29T16:16:07.543Z,5
2017-01-29T16:17:18.952Z,5
2017-01-29T16:18:30.572Z,0
2017-01-29T16:19:41.980Z,0
2017-01-29T16:20:53.389Z,0
2017-01-29T16:22:04.851Z,0
2017-01-29T16:23:16.263Z,0
2017-01-29T16:24:27.675Z,0
2017-01-29T16:25:39.290Z,0
2017-01-29T16:26:50.903Z,0
2017-01-29T16:28:02.359Z,0
2017-01-29T16:29:13.769Z,0
2017-01-29T16:30:25.191Z,0
2017-01-29T16:31:36.610Z,0
2017-01-29T16:32:48.023Z,0
2017-01-29T16:33:59.708Z,0
2017-01-29T16:35:11.325Z,0
2017-01-29T16:36:22.733Z,0
2017-01-29T16:37:34.145Z,0
2017-01-29T16:38:45.580Z,0
2017-01-29T16:39:57.035Z,0
2017-01-29T16:41:08.453Z,0
2017-01-29T16:42:20.074Z,0
2017-01-29T16:43:31.890Z,0
2017-01-29T16:44:43.492Z,0
2017-01-29T16:45:54.951Z,0
2017-01-29T16:47:06.372Z,0
2017-01-29T16:48:17.785Z,0
2017-01-29T16:49:29.191Z,0
2017-01-29T16:50:40.613Z,0
2017-01-29T16:51:52.081Z,0
2017-01-29T16:53:03.485Z,0
2017-01-29T16:54:14.903Z,0
2017-01-29T16:55:26.313Z,0
2017-01-29T16:56:37.728Z,0
2017-01-29T16:57:49.429Z,0
2017-01-29T16:59:00.837Z,0
2017-01-29T17:00:12.255Z,0
2017-01-29T17:01:23.675Z,0
2017-01-29T17:02:35.081Z,0
2017-01-29T17:03:46.540Z,0
2017-01-29T17:04:57.955Z,0
2017-01-29T17:06:09.359Z,0
2017-01-29T17:07:20.967Z,0
2017-01-29T17:08:32.372Z,0